sensor_id;sensor_type;location;lat;lon;timestamp;pressure;altitude;pressure_sealevel;temperature;humidity
78643;BME280;67954;47.618;17.606;2023-04-22T00:00:16;100103.03;;;10.51;69.00
78643;BME280;67954;47.618;17.606;2023-04-22T00:00:48;100104.59;;;10.44;69.30
78643;BME280;67954;47.618;17.606;2023-04-22T00:01:18;100107.72;;;10.39;68.92
78643;BME280;67954;47.618;17.606;2023-04-22T00:01:50;100108.28;;;10.43;68.55
78643;BME280;67954;47.618;17.606;2023-04-22T00:02:21;100112.94;;;10.41;68.25
78643;BME280;67954;47.618;17.606;2023-04-22T00:02:53;100106.22;;;10.36;68.69
78643;BME280;67954;47.618;17.606;2023-04-22T00:03:25;100103.97;;;10.32;68.67
78643;BME280;67954;47.618;17.606;2023-04-22T00:03:57;100106.94;;;10.29;68.82
78643;BME280;67954;47.618;17.606;2023-04-22T00:04:28;100116.13;;;10.26;68.70
78643;BME280;67954;47.618;17.606;2023-04-22T00:04:59;100105.09;;;10.29;68.60
78643;BME280;67954;47.618;17.606;2023-04-22T00:05:30;100112.78;;;10.24;68.93
78643;BME280;67954;47.618;17.606;2023-04-22T00:06:02;100108.09;;;10.17;68.91
78643;BME280;67954;47.618;17.606;2023-04-22T00:06:33;100115.31;;;10.16;68.83
78643;BME280;67954;47.618;17.606;2023-04-22T00:07:04;100107.25;;;10.16;68.92
78643;BME280;67954;47.618;17.606;2023-04-22T00:07:36;100113.91;;;10.22;68.87
78643;BME280;67954;47.618;17.606;2023-04-22T00:08:07;100107.69;;;10.21;68.87
78643;BME280;67954;47.618;17.606;2023-04-22T00:08:37;100107.00;;;10.19;68.97
78643;BME280;67954;47.618;17.606;2023-04-22T00:09:08;100119.69;;;10.17;69.23
78643;BME280;67954;47.618;17.606;2023-04-22T00:09:41;100107.97;;;10.18;68.88
78643;BME280;67954;47.618;17.606;2023-04-22T00:10:12;100115.59;;;10.23;68.61
78643;BME280;67954;47.618;17.606;2023-04-22T00:10:43;100108.25;;;10.25;69.28
78643;BME280;67954;47.618;17.606;2023-04-22T00:11:15;100114.47;;;10.25;69.07
78643;BME280;67954;47.618;17.606;2023-04-22T00:11:46;100119.00;;;10.25;69.22
78643;BME280;67954;47.618;17.606;2023-04-22T00:12:17;100119.13;;;10.23;69.60
78643;BME280;67954;47.618;17.606;2023-04-22T00:12:50;100112.59;;;10.26;69.19
78643;BME280;67954;47.618;17.606;2023-04-22T00:13:21;100114.75;;;10.22;69.67
78643;BME280;67954;47.618;17.606;2023-04-22T00:13:51;100118.00;;;10.16;69.36
78643;BME280;67954;47.618;17.606;2023-04-22T00:14:23;100111.53;;;10.09;69.57
78643;BME280;67954;47.618;17.606;2023-04-22T00:14:54;100115.59;;;10.13;69.75
78643;BME280;67954;47.618;17.606;2023-04-22T00:15:25;100113.75;;;10.14;69.36
78643;BME280;67954;47.618;17.606;2023-04-22T00:15:57;100110.09;;;10.15;69.58
78643;BME280;67954;47.618;17.606;2023-04-22T00:16:28;100117.72;;;10.19;69.67
78643;BME280;67954;47.618;17.606;2023-04-22T00:16:59;100118.97;;;10.15;69.39
78643;BME280;67954;47.618;17.606;2023-04-22T00:17:31;100115.91;;;10.10;69.84
78643;BME280;67954;47.618;17.606;2023-04-22T00:18:02;100112.25;;;10.11;69.64
78643;BME280;67954;47.618;17.606;2023-04-22T00:18:33;100118.84;;;10.17;69.83
78643;BME280;67954;47.618;17.606;2023-04-22T00:19:05;100110.78;;;10.17;69.35
78643;BME280;67954;47.618;17.606;2023-04-22T00:19:36;100115.31;;;10.16;70.00
78643;BME280;67954;47.618;17.606;2023-04-22T00:20:08;100116.03;;;10.18;69.44
78643;BME280;67954;47.618;17.606;2023-04-22T00:20:41;100113.34;;;10.18;69.78
78643;BME280;67954;47.618;17.606;2023-04-22T00:21:13;100111.78;;;10.16;69.92
78643;BME280;67954;47.618;17.606;2023-04-22T00:21:44;100111.41;;;10.11;70.34
78643;BME280;67954;47.618;17.606;2023-04-22T00:22:16;100110.22;;;10.13;70.31
78643;BME280;67954;47.618;17.606;2023-04-22T00:22:47;100111.91;;;10.14;70.16
78643;BME280;67954;47.618;17.606;2023-04-22T00:23:17;100112.91;;;10.13;70.39
78643;BME280;67954;47.618;17.606;2023-04-22T00:23:48;100108.38;;;10.14;69.93
78643;BME280;67954;47.618;17.606;2023-04-22T00:24:20;100105.69;;;10.14;70.23
78643;BME280;67954;47.618;17.606;2023-04-22T00:24:51;100111.63;;;10.17;70.33
78643;BME280;67954;47.618;17.606;2023-04-22T00:25:21;100111.78;;;10.16;70.41
78643;BME280;67954;47.618;17.606;2023-04-22T00:25:53;100104.56;;;10.16;70.35
78643;BME280;67954;47.618;17.606;2023-04-22T00:26:24;100105.88;;;10.12;70.20
78643;BME280;67954;47.618;17.606;2023-04-22T00:26:55;100106.75;;;10.03;70.21
78643;BME280;67954;47.618;17.606;2023-04-22T00:27:27;100101.09;;;10.06;70.06
78643;BME280;67954;47.618;17.606;2023-04-22T00:27:59;100101.94;;;10.07;69.80
78643;BME280;67954;47.618;17.606;2023-04-22T00:28:30;100103.78;;;10.06;70.28
78643;BME280;67954;47.618;17.606;2023-04-22T00:29:02;100106.31;;;10.08;70.11
78643;BME280;67954;47.618;17.606;2023-04-22T00:29:33;100104.19;;;10.11;69.83
78643;BME280;67954;47.618;17.606;2023-04-22T00:30:04;100105.88;;;10.12;69.86
78643;BME280;67954;47.618;17.606;2023-04-22T00:30:36;100111.69;;;10.08;70.23
78643;BME280;67954;47.618;17.606;2023-04-22T00:31:07;100103.78;;;10.06;70.40
78643;BME280;67954;47.618;17.606;2023-04-22T00:31:38;100106.16;;;10.09;70.45
78643;BME280;67954;47.618;17.606;2023-04-22T00:32:10;100108.28;;;10.06;70.36
78643;BME280;67954;47.618;17.606;2023-04-22T00:32:41;100106.50;;;9.96;69.96
78643;BME280;67954;47.618;17.606;2023-04-22T00:33:11;100109.75;;;9.90;70.18
78643;BME280;67954;47.618;17.606;2023-04-22T00:33:43;100105.53;;;9.88;70.02
78643;BME280;67954;47.618;17.606;2023-04-22T00:34:14;100099.31;;;9.87;70.14
78643;BME280;67954;47.618;17.606;2023-04-22T00:34:47;100104.53;;;9.89;69.63
78643;BME280;67954;47.618;17.606;2023-04-22T00:35:19;100105.94;;;9.93;69.51
78643;BME280;67954;47.618;17.606;2023-04-22T00:35:50;100107.03;;;10.00;69.47
78643;BME280;67954;47.618;17.606;2023-04-22T00:36:23;100102.69;;;9.99;69.97
78643;BME280;67954;47.618;17.606;2023-04-22T00:36:55;100105.38;;;9.99;69.52
78643;BME280;67954;47.618;17.606;2023-04-22T00:37:27;100102.84;;;9.97;70.01
78643;BME280;67954;47.618;17.606;2023-04-22T00:37:58;100101.13;;;9.96;70.23
78643;BME280;67954;47.618;17.606;2023-04-22T00:38:29;100100.56;;;9.93;70.56
78643;BME280;67954;47.618;17.606;2023-04-22T00:39:00;100101.00;;;9.88;70.43
78643;BME280;67954;47.618;17.606;2023-04-22T00:39:31;100104.28;;;9.82;70.28
78643;BME280;67954;47.618;17.606;2023-04-22T00:40:03;100101.66;;;9.73;70.11
78643;BME280;67954;47.618;17.606;2023-04-22T00:40:35;100095.59;;;9.71;70.73
78643;BME280;67954;47.618;17.606;2023-04-22T00:41:07;100097.66;;;9.77;69.92
78643;BME280;67954;47.618;17.606;2023-04-22T00:41:38;100098.94;;;9.82;70.45
78643;BME280;67954;47.618;17.606;2023-04-22T00:42:10;100096.81;;;9.86;70.63
78643;BME280;67954;47.618;17.606;2023-04-22T00:42:42;100098.47;;;9.87;70.42
78643;BME280;67954;47.618;17.606;2023-04-22T00:43:15;100097.78;;;9.85;70.41
78643;BME280;67954;47.618;17.606;2023-04-22T00:43:47;100106.97;;;9.82;70.45
78643;BME280;67954;47.618;17.606;2023-04-22T00:44:18;100101.75;;;9.81;70.43
78643;BME280;67954;47.618;17.606;2023-04-22T00:44:50;100101.91;;;9.79;70.27
78643;BME280;67954;47.618;17.606;2023-04-22T00:45:21;100100.91;;;9.80;70.34
78643;BME280;67954;47.618;17.606;2023-04-22T00:45:53;100099.78;;;9.83;69.98
78643;BME280;67954;47.618;17.606;2023-04-22T00:46:24;100107.69;;;9.84;70.18
78643;BME280;67954;47.618;17.606;2023-04-22T00:46:55;100105.84;;;9.85;70.46
78643;BME280;67954;47.618;17.606;2023-04-22T00:47:28;100107.53;;;9.86;70.16
78643;BME280;67954;47.618;17.606;2023-04-22T00:48:00;100101.16;;;9.87;70.16
78643;BME280;67954;47.618;17.606;2023-04-22T00:48:32;100109.06;;;9.88;70.01
78643;BME280;67954;47.618;17.606;2023-04-22T00:49:04;100104.84;;;9.86;70.17
78643;BME280;67954;47.618;17.606;2023-04-22T00:49:35;100097.78;;;9.85;70.02
78643;BME280;67954;47.618;17.606;2023-04-22T00:50:07;100096.94;;;9.84;70.38
78643;BME280;67954;47.618;17.606;2023-04-22T00:50:38;100104.28;;;9.82;70.28
78643;BME280;67954;47.618;17.606;2023-04-22T00:51:09;100107.69;;;9.84;70.48
78643;BME280;67954;47.618;17.606;2023-04-22T00:51:40;100109.66;;;9.82;70.42
78643;BME280;67954;47.618;17.606;2023-04-22T00:52:11;100095.97;;;9.76;70.65
78643;BME280;67954;47.618;17.606;2023-04-22T00:52:42;100106.16;;;9.72;70.82
78643;BME280;67954;47.618;17.606;2023-04-22T00:53:13;100096.13;;;9.74;70.71
78643;BME280;67954;47.618;17.606;2023-04-22T00:53:44;100091.91;;;9.72;70.79
78643;BME280;67954;47.618;17.606;2023-04-22T00:54:15;100094.16;;;9.66;71.04
78643;BME280;67954;47.618;17.606;2023-04-22T00:54:47;100102.94;;;9.68;70.77
78643;BME280;67954;47.618;17.606;2023-04-22T00:55:19;100100.66;;;9.64;70.85
78643;BME280;67954;47.618;17.606;2023-04-22T00:55:49;100101.50;;;9.64;71.06
78643;BME280;67954;47.618;17.606;2023-04-22T00:56:21;100097.44;;;9.60;70.80
78643;BME280;67954;47.618;17.606;2023-04-22T00:56:55;100101.41;;;9.56;70.76
78643;BME280;67954;47.618;17.606;2023-04-22T00:57:29;100099.81;;;9.63;70.42
78643;BME280;67954;47.618;17.606;2023-04-22T00:58:02;100090.78;;;9.64;70.89
78643;BME280;67954;47.618;17.606;2023-04-22T00:58:35;100100.81;;;9.62;70.71
78643;BME280;67954;47.618;17.606;2023-04-22T00:59:08;100097.56;;;9.68;70.68
78643;BME280;67954;47.618;17.606;2023-04-22T00:59:39;100098.97;;;9.73;70.81
78643;BME280;67954;47.618;17.606;2023-04-22T01:00:10;100094.16;;;9.66;70.78
78643;BME280;67954;47.618;17.606;2023-04-22T01:00:42;100099.81;;;9.63;70.54
78643;BME280;67954;47.618;17.606;2023-04-22T01:01:13;100096.16;;;9.64;70.33
78643;BME280;67954;47.618;17.606;2023-04-22T01:01:45;100092.63;;;9.64;70.38
78643;BME280;67954;47.618;17.606;2023-04-22T01:02:17;100095.31;;;9.64;70.65
78643;BME280;67954;47.618;17.606;2023-04-22T01:02:48;100096.44;;;9.61;71.08
78643;BME280;67954;47.618;17.606;2023-04-22T01:03:19;100097.16;;;9.54;71.14
78643;BME280;67954;47.618;17.606;2023-04-22T01:03:51;100099.28;;;9.50;70.68
78643;BME280;67954;47.618;17.606;2023-04-22T01:04:23;100100.69;;;9.54;70.65
78643;BME280;67954;47.618;17.606;2023-04-22T01:04:54;100102.41;;;9.55;70.39
78643;BME280;67954;47.618;17.606;2023-04-22T01:05:26;100098.59;;;9.58;70.51
78643;BME280;67954;47.618;17.606;2023-04-22T01:05:59;100098.72;;;9.56;70.38
78643;BME280;67954;47.618;17.606;2023-04-22T01:06:30;100095.75;;;9.59;70.93
78643;BME280;67954;47.618;17.606;2023-04-22T01:07:02;100100.28;;;9.59;70.67
78643;BME280;67954;47.618;17.606;2023-04-22T01:07:33;100095.06;;;9.57;71.11
78643;BME280;67954;47.618;17.606;2023-04-22T01:08:04;100101.81;;;9.61;71.10
78643;BME280;67954;47.618;17.606;2023-04-22T01:08:34;100099.97;;;9.62;70.91
78643;BME280;67954;47.618;17.606;2023-04-22T01:09:06;100099.81;;;9.63;71.03
78643;BME280;67954;47.618;17.606;2023-04-22T01:09:37;100094.47;;;9.63;70.86
78643;BME280;67954;47.618;17.606;2023-04-22T01:10:09;100100.13;;;9.60;71.41
78643;BME280;67954;47.618;17.606;2023-04-22T01:10:41;100105.19;;;9.63;71.02
78643;BME280;67954;47.618;17.606;2023-04-22T01:11:13;100100.66;;;9.64;71.00
78643;BME280;67954;47.618;17.606;2023-04-22T01:11:45;100097.28;;;9.62;71.01
78643;BME280;67954;47.618;17.606;2023-04-22T01:12:16;100092.91;;;9.61;70.82
78643;BME280;67954;47.618;17.606;2023-04-22T01:12:46;100094.34;;;9.55;71.05
78643;BME280;67954;47.618;17.606;2023-04-22T01:13:18;100098.72;;;9.56;71.03
78643;BME280;67954;47.618;17.606;2023-04-22T01:13:51;100095.19;;;9.56;71.21
78643;BME280;67954;47.618;17.606;2023-04-22T01:14:22;100096.19;;;9.55;71.26
78643;BME280;67954;47.618;17.606;2023-04-22T01:14:55;100095.19;;;9.56;71.60
78643;BME280;67954;47.618;17.606;2023-04-22T01:15:26;100096.31;;;9.53;71.33
78643;BME280;67954;47.618;17.606;2023-04-22T01:15:59;100095.47;;;9.53;71.30
78643;BME280;67954;47.618;17.606;2023-04-22T01:16:30;100102.41;;;9.55;71.05
78643;BME280;67954;47.618;17.606;2023-04-22T01:17:04;100098.16;;;9.53;71.46
78643;BME280;67954;47.618;17.606;2023-04-22T01:17:36;100099.84;;;9.54;71.16
78643;BME280;67954;47.618;17.606;2023-04-22T01:18:07;100097.16;;;9.54;71.13
78643;BME280;67954;47.618;17.606;2023-04-22T01:18:39;100109.44;;;9.56;71.27
78643;BME280;67954;47.618;17.606;2023-04-22T01:19:10;100093.22;;;9.58;71.45
78643;BME280;67954;47.618;17.606;2023-04-22T01:19:41;100098.16;;;9.53;71.42
78643;BME280;67954;47.618;17.606;2023-04-22T01:20:14;100099.59;;;9.47;71.41
78643;BME280;67954;47.618;17.606;2023-04-22T01:20:45;100101.56;;;9.45;71.57
78643;BME280;67954;47.618;17.606;2023-04-22T01:21:16;100097.06;;;9.46;71.21
78643;BME280;67954;47.618;17.606;2023-04-22T01:21:49;100101.56;;;9.45;71.34
78643;BME280;67954;47.618;17.606;2023-04-22T01:22:21;100098.75;;;9.47;71.31
78643;BME280;67954;47.618;17.606;2023-04-22T01:22:54;100105.50;;;9.51;71.91
78643;BME280;67954;47.618;17.606;2023-04-22T01:23:29;100098.44;;;9.50;71.43
78643;BME280;67954;47.618;17.606;2023-04-22T01:24:00;100104.66;;;9.50;71.42
78643;BME280;67954;47.618;17.606;2023-04-22T01:24:32;100103.66;;;9.51;71.66
78643;BME280;67954;47.618;17.606;2023-04-22T01:25:04;100101.97;;;9.50;71.27
78643;BME280;67954;47.618;17.606;2023-04-22T01:25:36;100101.97;;;9.50;71.72
78643;BME280;67954;47.618;17.606;2023-04-22T01:26:07;100103.81;;;9.50;71.19
78643;BME280;67954;47.618;17.606;2023-04-22T01:26:39;100101.56;;;9.55;71.42
78643;BME280;67954;47.618;17.606;2023-04-22T01:27:10;100099.00;;;9.53;71.52
78643;BME280;67954;47.618;17.606;2023-04-22T01:27:41;100102.81;;;9.51;71.15
78643;BME280;67954;47.618;17.606;2023-04-22T01:28:15;100102.28;;;9.47;71.35
78643;BME280;67954;47.618;17.606;2023-04-22T01:28:46;100105.63;;;9.49;71.20
78643;BME280;67954;47.618;17.606;2023-04-22T01:29:17;100098.31;;;9.51;71.71
78643;BME280;67954;47.618;17.606;2023-04-22T01:29:49;100097.59;;;9.49;71.63
78643;BME280;67954;47.618;17.606;2023-04-22T01:30:20;100098.44;;;9.50;71.25
78643;BME280;67954;47.618;17.606;2023-04-22T01:30:51;100107.47;;;9.49;71.47
78643;BME280;67954;47.618;17.606;2023-04-22T01:31:23;100093.53;;;9.45;71.63
78643;BME280;67954;47.618;17.606;2023-04-22T01:31:54;100102.28;;;9.47;71.13
78643;BME280;67954;47.618;17.606;2023-04-22T01:32:25;100104.53;;;9.42;71.77
78643;BME280;67954;47.618;17.606;2023-04-22T01:32:56;100105.28;;;9.35;71.88
78643;BME280;67954;47.618;17.606;2023-04-22T01:33:28;100106.25;;;9.34;71.79
78643;BME280;67954;47.618;17.606;2023-04-22T01:34:00;100101.16;;;9.40;71.45
78643;BME280;67954;47.618;17.606;2023-04-22T01:34:31;100101.84;;;9.42;71.46
78643;BME280;67954;47.618;17.606;2023-04-22T01:35:03;100100.03;;;9.43;72.09
78643;BME280;67954;47.618;17.606;2023-04-22T01:35:35;100104.69;;;9.41;71.43
78643;BME280;67954;47.618;17.606;2023-04-22T01:36:06;100110.47;;;9.36;71.64
78643;BME280;67954;47.618;17.606;2023-04-22T01:36:37;100103.00;;;9.30;71.79
78643;BME280;67954;47.618;17.606;2023-04-22T01:37:09;100098.63;;;9.29;71.67
78643;BME280;67954;47.618;17.606;2023-04-22T01:37:40;100099.19;;;9.23;71.92
78643;BME280;67954;47.618;17.606;2023-04-22T01:38:11;100104.88;;;9.20;71.68
78643;BME280;67954;47.618;17.606;2023-04-22T01:38:45;100103.16;;;9.19;71.73
78643;BME280;67954;47.618;17.606;2023-04-22T01:39:16;100104.88;;;9.20;71.30
78643;BME280;67954;47.618;17.606;2023-04-22T01:39:48;100109.50;;;9.18;71.37
78643;BME280;67954;47.618;17.606;2023-04-22T01:40:20;100104.44;;;9.15;71.36
78643;BME280;67954;47.618;17.606;2023-04-22T01:40:52;100103.72;;;9.13;71.73
78643;BME280;67954;47.618;17.606;2023-04-22T01:41:23;100109.78;;;9.15;71.43
78643;BME280;67954;47.618;17.606;2023-04-22T01:41:54;100103.59;;;9.14;71.44
78643;BME280;67954;47.618;17.606;2023-04-22T01:42:28;100108.38;;;9.11;71.42
78643;BME280;67954;47.618;17.606;2023-04-22T01:43:00;100106.00;;;9.08;71.68
78643;BME280;67954;47.618;17.606;2023-04-22T01:43:31;100101.63;;;9.07;71.66
78643;BME280;67954;47.618;17.606;2023-04-22T01:44:03;100102.47;;;9.07;71.79
78643;BME280;67954;47.618;17.606;2023-04-22T01:44:34;100112.88;;;9.10;71.85
78643;BME280;67954;47.618;17.606;2023-04-22T01:45:05;100105.00;;;9.09;71.95
78643;BME280;67954;47.618;17.606;2023-04-22T01:45:38;100109.09;;;9.13;71.72
78643;BME280;67954;47.618;17.606;2023-04-22T01:46:08;100111.06;;;9.11;72.27
78643;BME280;67954;47.618;17.606;2023-04-22T01:46:39;100104.72;;;9.12;72.27
78643;BME280;67954;47.618;17.606;2023-04-22T01:47:11;100106.41;;;9.13;72.13
78643;BME280;67954;47.618;17.606;2023-04-22T01:47:43;100107.09;;;9.15;72.25
78643;BME280;67954;47.618;17.606;2023-04-22T01:48:13;100110.22;;;9.10;72.04
78643;BME280;67954;47.618;17.606;2023-04-22T01:48:45;100115.16;;;9.15;71.98
78643;BME280;67954;47.618;17.606;2023-04-22T01:49:20;100107.09;;;9.15;72.35
78643;BME280;67954;47.618;17.606;2023-04-22T01:49:51;100110.63;;;9.15;72.41
78643;BME280;67954;47.618;17.606;2023-04-22T01:50:23;100104.72;;;9.12;72.32
78643;BME280;67954;47.618;17.606;2023-04-22T01:50:54;100111.19;;;9.09;72.34
78643;BME280;67954;47.618;17.606;2023-04-22T01:51:25;100109.53;;;9.08;72.37
78643;BME280;67954;47.618;17.606;2023-04-22T01:51:57;100111.34;;;9.08;72.36
78643;BME280;67954;47.618;17.606;2023-04-22T01:52:29;100108.38;;;9.11;72.49
78643;BME280;67954;47.618;17.606;2023-04-22T01:53:00;100113.31;;;9.15;72.29
78643;BME280;67954;47.618;17.606;2023-04-22T01:53:32;100105.28;;;9.15;72.13
78643;BME280;67954;47.618;17.606;2023-04-22T01:54:04;100102.47;;;9.17;72.00
78643;BME280;67954;47.618;17.606;2023-04-22T01:54:35;100106.13;;;9.16;71.98
78643;BME280;67954;47.618;17.606;2023-04-22T01:55:08;100110.78;;;9.14;72.00
78643;BME280;67954;47.618;17.606;2023-04-22T01:55:39;100112.47;;;9.15;71.99
78643;BME280;67954;47.618;17.606;2023-04-22T01:56:11;100105.28;;;9.06;72.04
78643;BME280;67954;47.618;17.606;2023-04-22T01:56:49;100108.97;;;9.05;72.36
78643;BME280;67954;47.618;17.606;2023-04-22T01:57:20;100116.72;;;9.08;72.58
78643;BME280;67954;47.618;17.606;2023-04-22T01:57:51;100103.31;;;9.08;72.68
78643;BME280;67954;47.618;17.606;2023-04-22T01:58:22;100110.38;;;9.09;72.41
78643;BME280;67954;47.618;17.606;2023-04-22T01:58:53;100111.06;;;9.11;72.20
78643;BME280;67954;47.618;17.606;2023-04-22T01:59:24;100106.53;;;9.11;72.35
78643;BME280;67954;47.618;17.606;2023-04-22T01:59:56;100106.53;;;9.11;72.54
78643;BME280;67954;47.618;17.606;2023-04-22T02:00:27;100113.06;;;9.09;72.71
78643;BME280;67954;47.618;17.606;2023-04-22T02:00:58;100108.97;;;9.05;72.31
78643;BME280;67954;47.618;17.606;2023-04-22T02:01:30;100112.91;;;9.01;72.21
78643;BME280;67954;47.618;17.606;2023-04-22T02:02:01;100108.13;;;8.94;72.39
78643;BME280;67954;47.618;17.606;2023-04-22T02:02:32;100103.44;;;8.96;72.50
78643;BME280;67954;47.618;17.606;2023-04-22T02:03:03;100108.13;;;8.94;72.33
78643;BME280;67954;47.618;17.606;2023-04-22T02:03:35;100115.59;;;8.91;72.24
78643;BME280;67954;47.618;17.606;2023-04-22T02:04:06;100104.72;;;8.92;72.17
78643;BME280;67954;47.618;17.606;2023-04-22T02:04:36;100107.41;;;8.92;72.13
78643;BME280;67954;47.618;17.606;2023-04-22T02:05:10;100106.97;;;8.97;71.83
78643;BME280;67954;47.618;17.606;2023-04-22T02:05:41;100108.78;;;8.96;72.19
78643;BME280;67954;47.618;17.606;2023-04-22T02:06:11;100110.50;;;8.88;71.93
78643;BME280;67954;47.618;17.606;2023-04-22T02:06:42;100110.22;;;8.91;71.88
78643;BME280;67954;47.618;17.606;2023-04-22T02:07:14;100112.63;;;8.94;71.66
78643;BME280;67954;47.618;17.606;2023-04-22T02:07:45;100110.63;;;8.96;71.71
78643;BME280;67954;47.618;17.606;2023-04-22T02:08:16;100113.16;;;8.98;72.20
78643;BME280;67954;47.618;17.606;2023-04-22T02:08:48;100113.16;;;8.98;71.65
78643;BME280;67954;47.618;17.606;2023-04-22T02:09:20;100106.13;;;8.96;72.21
78643;BME280;67954;47.618;17.606;2023-04-22T02:09:51;100107.41;;;8.92;72.25
78643;BME280;67954;47.618;17.606;2023-04-22T02:10:23;100113.31;;;8.96;72.01
78643;BME280;67954;47.618;17.606;2023-04-22T02:10:54;100111.66;;;8.95;72.14
78643;BME280;67954;47.618;17.606;2023-04-22T02:11:24;100112.19;;;8.99;71.97
78643;BME280;67954;47.618;17.606;2023-04-22T02:11:56;100108.66;;;8.98;71.96
78643;BME280;67954;47.618;17.606;2023-04-22T02:12:27;100112.19;;;8.99;72.10
78643;BME280;67954;47.618;17.606;2023-04-22T02:12:58;100104.00;;;9.00;72.30
78643;BME280;67954;47.618;17.606;2023-04-22T02:13:34;100109.38;;;9.00;72.53
78643;BME280;67954;47.618;17.606;2023-04-22T02:14:05;100108.38;;;8.91;72.40
78643;BME280;67954;47.618;17.606;2023-04-22T02:14:36;100100.63;;;8.88;72.25
78643;BME280;67954;47.618;17.606;2023-04-22T02:15:08;100109.25;;;8.92;72.22
78643;BME280;67954;47.618;17.606;2023-04-22T02:15:40;100108.97;;;8.95;72.39
78643;BME280;67954;47.618;17.606;2023-04-22T02:16:11;100103.59;;;8.95;72.30
78643;BME280;67954;47.618;17.606;2023-04-22T02:16:42;100108.13;;;8.94;72.51
78643;BME280;67954;47.618;17.606;2023-04-22T02:17:13;100103.44;;;8.96;72.37
78643;BME280;67954;47.618;17.606;2023-04-22T02:17:47;100111.19;;;9.00;72.32
78643;BME280;67954;47.618;17.606;2023-04-22T02:18:18;100107.81;;;8.98;72.58
78643;BME280;67954;47.618;17.606;2023-04-22T02:18:49;100114.16;;;8.96;72.30
78643;BME280;67954;47.618;17.606;2023-04-22T02:19:20;100103.75;;;8.93;72.64
78643;BME280;67954;47.618;17.606;2023-04-22T02:19:51;100106.28;;;8.95;72.05
78643;BME280;67954;47.618;17.606;2023-04-22T02:20:23;100110.63;;;8.96;72.45
78643;BME280;67954;47.618;17.606;2023-04-22T02:20:53;100110.78;;;8.94;72.39
78643;BME280;67954;47.618;17.606;2023-04-22T02:21:25;100109.94;;;8.94;72.41
78643;BME280;67954;47.618;17.606;2023-04-22T02:21:57;100102.06;;;8.92;72.75
78643;BME280;67954;47.618;17.606;2023-04-22T02:22:27;100108.38;;;8.91;72.46
78643;BME280;67954;47.618;17.606;2023-04-22T02:22:59;100105.44;;;8.94;72.21
78643;BME280;67954;47.618;17.606;2023-04-22T02:23:30;100107.13;;;8.95;72.21
78643;BME280;67954;47.618;17.606;2023-04-22T02:24:02;100113.31;;;8.96;72.36
78643;BME280;67954;47.618;17.606;2023-04-22T02:24:35;100110.63;;;8.96;72.32
78643;BME280;67954;47.618;17.606;2023-04-22T02:25:07;100103.03;;;8.91;72.46
78643;BME280;67954;47.618;17.606;2023-04-22T02:25:40;100108.53;;;8.90;72.70
78643;BME280;67954;47.618;17.606;2023-04-22T02:26:11;100104.44;;;8.86;72.27
78643;BME280;67954;47.618;17.606;2023-04-22T02:26:41;100104.03;;;8.81;72.61
78643;BME280;67954;47.618;17.606;2023-04-22T02:27:12;100107.25;;;8.84;72.84
78643;BME280;67954;47.618;17.606;2023-04-22T02:27:44;100107.25;;;8.84;73.10
78643;BME280;67954;47.618;17.606;2023-04-22T02:28:15;100104.88;;;8.81;72.72
78643;BME280;67954;47.618;17.606;2023-04-22T02:28:46;100103.88;;;8.82;72.54
78643;BME280;67954;47.618;17.606;2023-04-22T02:29:18;100105.00;;;8.80;72.57
78643;BME280;67954;47.618;17.606;2023-04-22T02:29:48;100104.03;;;8.81;72.56
78643;BME280;67954;47.618;17.606;2023-04-22T02:30:20;100096.13;;;8.79;72.82
78643;BME280;67954;47.618;17.606;2023-04-22T02:30:52;100095.13;;;8.80;72.57
78643;BME280;67954;47.618;17.606;2023-04-22T02:31:23;100103.19;;;8.80;72.94
78643;BME280;67954;47.618;17.606;2023-04-22T02:31:54;100099.22;;;8.84;72.46
78643;BME280;67954;47.618;17.606;2023-04-22T02:32:24;100105.84;;;8.80;72.54
78643;BME280;67954;47.618;17.606;2023-04-22T02:32:56;100097.69;;;8.82;72.37
78643;BME280;67954;47.618;17.606;2023-04-22T02:33:27;100103.88;;;8.82;72.53
78643;BME280;67954;47.618;17.606;2023-04-22T02:33:58;100094.84;;;8.83;72.59
78643;BME280;67954;47.618;17.606;2023-04-22T02:34:29;100101.34;;;8.81;72.50
78643;BME280;67954;47.618;17.606;2023-04-22T02:35:00;100095.00;;;8.82;72.79
78643;BME280;67954;47.618;17.606;2023-04-22T02:35:31;100095.84;;;8.82;72.62
78643;BME280;67954;47.618;17.606;2023-04-22T02:36:02;100097.38;;;8.85;72.60
78643;BME280;67954;47.618;17.606;2023-04-22T02:36:34;100092.88;;;8.85;72.63
78643;BME280;67954;47.618;17.606;2023-04-22T02:37:05;100093.84;;;8.84;73.17
78643;BME280;67954;47.618;17.606;2023-04-22T02:37:35;100092.00;;;8.85;72.55
78643;BME280;67954;47.618;17.606;2023-04-22T02:38:06;100098.22;;;8.85;72.67
78643;BME280;67954;47.618;17.606;2023-04-22T02:38:38;100094.56;;;8.86;72.46
78643;BME280;67954;47.618;17.606;2023-04-22T02:39:09;100090.19;;;8.85;72.13
78643;BME280;67954;47.618;17.606;2023-04-22T02:39:42;100088.63;;;8.83;72.71
78643;BME280;67954;47.618;17.606;2023-04-22T02:40:13;100087.63;;;8.84;72.67
78643;BME280;67954;47.618;17.606;2023-04-22T02:40:44;100088.78;;;8.81;72.53
78643;BME280;67954;47.618;17.606;2023-04-22T02:41:15;100091.16;;;8.84;72.54
78643;BME280;67954;47.618;17.606;2023-04-22T02:41:47;100088.50;;;8.84;72.68
78643;BME280;67954;47.618;17.606;2023-04-22T02:42:18;100088.50;;;8.84;72.65
78643;BME280;67954;47.618;17.606;2023-04-22T02:42:49;100087.50;;;8.85;72.51
78643;BME280;67954;47.618;17.606;2023-04-22T02:43:20;100095.00;;;8.82;72.64
78643;BME280;67954;47.618;17.606;2023-04-22T02:43:51;100092.47;;;8.80;73.07
78643;BME280;67954;47.618;17.606;2023-04-22T02:44:22;100095.13;;;8.80;72.71